createdAt,value
2022-08-09T00:01:26.550Z,65.49
2022-08-09T00:04:10.737Z,65.44
2022-08-09T00:06:51.030Z,65.43
2022-08-09T00:09:19.395Z,65.41
2022-08-09T00:12:02.597Z,65.43
2022-08-09T00:14:36.488Z,65.30
2022-08-09T00:17:07.422Z,65.51
2022-08-09T00:19:34.892Z,65.59
2022-08-09T00:22:03.445Z,65.34
2022-08-09T00:24:31.929Z,65.25
2022-08-09T00:27:02.483Z,65.24
2022-08-09T00:30:09.879Z,65.71
2022-08-09T00:32:26.596Z,65.58
2022-08-09T00:35:03.189Z,65.92
2022-08-09T00:37:30.177Z,65.89
2022-08-09T00:40:13.662Z,65.74
2022-08-09T00:44:10.556Z,65.57
2022-08-09T00:45:29.877Z,65.64
2022-08-09T00:47:56.532Z,65.89
2022-08-09T00:50:24.333Z,66.05
2022-08-09T00:52:52.592Z,65.79
2022-08-09T00:56:03.326Z,65.88
2022-08-09T00:58:06.990Z,65.79
2022-08-09T01:00:40.597Z,65.92
2022-08-09T01:03:24.225Z,66.07
2022-08-09T01:06:17.884Z,65.88
2022-08-09T01:09:03.200Z,66.23
2022-08-09T01:11:39.495Z,66.29
2022-08-09T01:14:15.037Z,66.22
2022-08-09T01:16:47.376Z,66.45
2022-08-09T01:19:51.649Z,66.39
2022-08-09T01:22:55.030Z,66.61
2022-08-09T01:25:48.986Z,66.06
2022-08-09T01:28:19.708Z,66.40
2022-08-09T01:30:52.927Z,66.46
2022-08-09T01:33:22.544Z,66.38
2022-08-09T01:35:56.681Z,66.42
2022-08-09T01:38:29.878Z,66.64
2022-08-09T01:41:05.836Z,66.66
2022-08-09T01:43:50.549Z,66.64
2022-08-09T01:46:31.695Z,66.90
2022-08-09T01:49:10.249Z,66.88
2022-08-09T01:51:44.452Z,67.25
2022-08-09T01:54:21.212Z,66.96
2022-08-09T01:56:51.611Z,67.45
2022-08-09T01:59:20.773Z,67.50
2022-08-09T02:02:00.081Z,67.67
2022-08-09T02:04:29.958Z,67.49
2022-08-09T02:08:35.265Z,67.83
2022-08-09T02:10:09.217Z,67.69
2022-08-09T02:12:37.756Z,67.43
2022-08-09T02:15:11.807Z,67.32
2022-08-09T02:18:01.223Z,67.25
2022-08-09T02:20:40.765Z,67.02
2022-08-09T02:23:32.031Z,66.79
2022-08-09T02:26:24.982Z,66.60
2022-08-09T02:28:57.379Z,66.68
2022-08-09T02:31:34.062Z,67.00
2022-08-09T02:34:38.658Z,67.08
2022-08-09T02:37:05.636Z,67.38
2022-08-09T02:39:42.596Z,67.49
2022-08-09T02:42:24.920Z,67.58
2022-08-09T02:44:57.315Z,67.36
2022-08-09T02:47:24.904Z,67.44
2022-08-09T02:50:01.563Z,67.84
2022-08-09T02:52:36.513Z,67.16
2022-08-09T02:55:20.959Z,67.59
2022-08-09T02:58:00.518Z,67.52
2022-08-09T03:00:39.518Z,67.82
2022-08-09T03:04:12.281Z,67.52
2022-08-09T03:06:14.835Z,67.19
2022-08-09T03:08:46.161Z,67.34
2022-08-09T03:11:29.726Z,67.11
2022-08-09T03:14:05.349Z,67.32
2022-08-09T03:16:33.723Z,67.17
2022-08-09T03:19:04.042Z,67.35
2022-08-09T03:21:41.914Z,67.13
2022-08-09T03:24:10.202Z,67.54
2022-08-09T03:26:42.635Z,67.70
2022-08-09T03:29:22.887Z,67.82
2022-08-09T03:31:59.912Z,67.32
2022-08-09T03:34:27.889Z,67.53
2022-08-09T03:36:58.217Z,67.71
2022-08-09T03:39:37.570Z,68.10
2022-08-09T03:42:06.408Z,67.77
2022-08-09T03:44:33.761Z,67.99
2022-08-09T03:47:00.203Z,68.07
2022-08-09T03:49:32.852Z,68.17
2022-08-09T03:52:03.566Z,68.31
2022-08-09T03:54:38.627Z,68.12
2022-08-09T03:57:18.321Z,68.62
2022-08-09T03:59:54.514Z,68.61
2022-08-09T04:02:26.455Z,68.66
2022-08-09T04:05:06.249Z,68.63
2022-08-09T04:07:52.387Z,68.36
2022-08-09T04:10:28.778Z,68.70
2022-08-09T04:12:58.108Z,68.65
2022-08-09T04:15:38.730Z,68.38
2022-08-09T04:18:16.766Z,68.57
2022-08-09T04:20:45.523Z,68.72
2022-08-09T04:23:17.197Z,68.75
2022-08-09T04:25:49.885Z,68.62
2022-08-09T04:28:33.734Z,68.72
2022-08-09T04:31:08.606Z,68.96
2022-08-09T04:33:47.622Z,68.73
2022-08-09T04:36:29.574Z,68.45
2022-08-09T04:38:59.438Z,68.66
2022-08-09T04:41:32.900Z,68.51
2022-08-09T04:44:07.368Z,68.79
2022-08-09T04:46:57.527Z,68.61
2022-08-09T04:49:52.574Z,68.61
2022-08-09T04:52:22.142Z,68.77
2022-08-09T04:55:00.934Z,69.06
2022-08-09T04:57:53.761Z,69.05
2022-08-09T05:00:16.602Z,68.87
2022-08-09T05:02:44.175Z,68.86
2022-08-09T05:05:31.508Z,69.26
2022-08-09T05:08:01.670Z,69.16
2022-08-09T05:10:28.202Z,69.22
2022-08-09T05:12:54.644Z,69.21
2022-08-09T05:15:38.697Z,69.37
2022-08-09T05:18:42.207Z,69.58
2022-08-09T05:20:54.099Z,70.24
2022-08-09T05:23:56.742Z,70.02
2022-08-09T05:26:07.195Z,69.92
2022-08-09T05:28:33.930Z,69.34
2022-08-09T05:31:00.988Z,69.47
2022-08-09T05:33:35.986Z,69.40
2022-08-09T05:36:09.014Z,69.84
2022-08-09T05:38:39.091Z,69.98
2022-08-09T05:41:06.022Z,69.35
2022-08-09T05:43:40.625Z,69.68
2022-08-09T05:46:13.358Z,69.43
2022-08-09T05:48:39.771Z,69.48
2022-08-09T05:51:41.613Z,69.36
2022-08-09T05:53:57.249Z,68.93
2022-08-09T05:56:25.839Z,68.76
2022-08-09T05:58:58.247Z,69.50
2022-08-09T06:01:26.901Z,69.06
2022-08-09T06:04:02.253Z,68.96
2022-08-09T06:06:31.924Z,68.82
2022-08-09T06:08:58.860Z,68.48
2022-08-09T06:11:41.215Z,68.33
2022-08-09T06:14:12.081Z,68.16
2022-08-09T06:16:38.765Z,67.52
2022-08-09T06:19:07.851Z,67.93
2022-08-09T06:21:34.283Z,68.14
2022-08-09T06:24:06.313Z,67.79
2022-08-09T06:26:34.727Z,68.10
2022-08-09T06:29:04.998Z,68.17
2022-08-09T06:31:39.842Z,67.75
2022-08-09T06:34:22.891Z,67.81
2022-08-09T06:36:59.532Z,67.57
2022-08-09T06:39:57.789Z,67.56
2022-08-09T06:42:19.869Z,67.25
2022-08-09T06:44:47.501Z,67.09
2022-08-09T06:47:20.868Z,66.71
2022-08-09T06:50:13.403Z,66.79
2022-08-09T06:52:35.305Z,66.94
2022-08-09T06:55:01.765Z,66.23
2022-08-09T06:58:01.608Z,66.15
2022-08-09T07:00:51.173Z,66.12
2022-08-09T07:03:09.662Z,65.83
2022-08-09T07:06:02.216Z,65.66
2022-08-09T07:08:24.773Z,65.76
2022-08-09T07:10:51.716Z,65.93
2022-08-09T07:13:28.100Z,65.35
2022-08-09T07:16:41.821Z,65.79
2022-08-09T07:18:42.978Z,66.30
2022-08-09T07:21:10.385Z,66.19
2022-08-09T07:23:56.715Z,65.93
2022-08-09T07:26:24.649Z,66.04
2022-08-09T07:29:08.558Z,66.30
2022-08-09T07:31:38.278Z,66.30
2022-08-09T07:34:20.785Z,66.09
2022-08-09T07:36:49.212Z,65.64
2022-08-09T07:39:19.861Z,65.65
2022-08-09T07:41:47.683Z,65.82
2022-08-09T07:44:14.836Z,65.34
2022-08-09T07:46:41.591Z,65.56
2022-08-09T07:49:15.209Z,65.82
2022-08-09T07:52:04.980Z,65.74
2022-08-09T07:54:31.084Z,65.54
2022-08-09T07:56:58.566Z,65.23
2022-08-09T07:59:34.399Z,65.35
2022-08-09T08:02:19.502Z,65.04
2022-08-09T08:04:48.556Z,65.29
2022-08-09T08:08:43.035Z,64.69
2022-08-09T08:10:08.765Z,65.27
2022-08-09T08:12:42.414Z,65.16
2022-08-09T08:15:13.772Z,64.68
2022-08-09T08:17:54.663Z,64.38
2022-08-09T08:20:27.191Z,64.50
2022-08-09T08:23:01.565Z,64.34
2022-08-09T08:25:43.768Z,64.16
2022-08-09T08:28:11.521Z,64.16
2022-08-09T08:30:41.450Z,63.32
2022-08-09T08:33:11.757Z,63.95
2022-08-09T08:35:59.127Z,64.44
2022-08-09T08:38:25.481Z,64.22
2022-08-09T08:40:56.080Z,63.62
2022-08-09T08:43:23.709Z,63.79
2022-08-09T08:46:10.046Z,62.45
2022-08-09T08:48:51.033Z,62.23
2022-08-09T08:51:18.756Z,61.66
2022-08-09T08:54:03.716Z,61.44
2022-08-09T08:56:36.325Z,61.77
2022-08-09T08:59:19.192Z,62.15
2022-08-09T09:01:52.831Z,62.06
2022-08-09T09:04:41.197Z,60.46
2022-08-09T09:07:15.327Z,60.19
2022-08-09T09:10:01.444Z,60.64
2022-08-09T09:12:35.347Z,60.35
2022-08-09T09:15:05.811Z,60.02
2022-08-09T09:17:48.190Z,59.70
2022-08-09T09:20:16.336Z,58.52
2022-08-09T09:22:51.961Z,58.61
2022-08-09T09:26:03.744Z,59.04
2022-08-09T09:28:21.366Z,58.33
2022-08-09T09:31:17.177Z,57.82
2022-08-09T09:34:14.301Z,57.78
2022-08-09T09:36:53.176Z,59.05
2022-08-09T09:39:42.608Z,59.71
2022-08-09T09:42:27.754Z,59.78
2022-08-09T09:45:03.649Z,59.60
2022-08-09T09:47:32.692Z,60.09
2022-08-09T09:50:15.076Z,59.69
2022-08-09T09:52:56.449Z,59.07
2022-08-09T09:55:32.296Z,58.75
2022-08-09T09:58:16.774Z,57.58
2022-08-09T10:00:53.852Z,58.06
2022-08-09T10:03:42.836Z,58.31
2022-08-09T10:06:11.691Z,58.25
2022-08-09T10:08:43.176Z,58.27
2022-08-09T10:11:59.979Z,57.63
2022-08-09T10:14:30.394Z,57.63
2022-08-09T10:17:39.339Z,56.89
2022-08-09T10:19:58.124Z,57.52
2022-08-09T10:22:32.797Z,57.21
2022-08-09T10:25:03.441Z,57.09
2022-08-09T10:27:38.515Z,57.32
2022-08-09T10:31:39.114Z,57.09
2022-08-09T10:33:00.235Z,56.66
2022-08-09T10:35:27.434Z,56.44
2022-08-09T10:37:55.212Z,56.85
2022-08-09T10:40:33.827Z,56.38
2022-08-09T10:43:04.596Z,56.47
2022-08-09T10:45:35.347Z,56.24
2022-08-09T10:48:31.340Z,55.52
2022-08-09T10:51:12.141Z,55.16
2022-08-09T10:53:59.655Z,55.67
2022-08-09T10:56:36.407Z,55.41
2022-08-09T10:59:31.217Z,55.48
2022-08-09T11:03:13.708Z,55.30
2022-08-09T11:05:25.312Z,54.80
2022-08-09T11:07:58.993Z,54.45
2022-08-09T11:10:41.133Z,54.49
2022-08-09T11:13:49.522Z,55.06
2022-08-09T11:16:34.986Z,54.05
2022-08-09T11:19:07.946Z,54.06
2022-08-09T11:22:10.608Z,54.14
2022-08-09T11:25:05.435Z,53.85
2022-08-09T11:28:02.678Z,53.17
2022-08-09T11:30:33.414Z,53.12
2022-08-09T11:33:19.082Z,53.38
2022-08-09T11:35:53.462Z,54.24
2022-08-09T11:38:34.775Z,53.45
2022-08-09T11:41:12.899Z,53.31
2022-08-09T11:43:48.651Z,53.50
2022-08-09T11:48:55.803Z,52.32
2022-08-09T11:53:03.701Z,53.02
2022-08-09T11:54:13.911Z,54.03
2022-08-09T11:56:47.527Z,54.28
2022-08-09T11:59:30.262Z,54.12
2022-08-09T12:02:17.539Z,54.37
2022-08-09T12:04:47.197Z,53.64
2022-08-09T12:07:14.744Z,53.39
2022-08-09T12:09:50.482Z,54.00
2022-08-09T12:12:20.592Z,53.58
2022-08-09T12:15:07.465Z,54.13
2022-08-09T12:17:43.527Z,54.42
2022-08-09T12:20:16.757Z,54.01
2022-08-09T12:22:55.971Z,53.75
2022-08-09T12:25:36.264Z,54.03
2022-08-09T12:29:12.575Z,53.73
2022-08-09T12:31:02.841Z,53.61
2022-08-09T12:33:58.822Z,53.05
2022-08-09T12:36:33.475Z,52.71
2022-08-09T12:39:01.496Z,52.88
2022-08-09T12:41:39.029Z,52.73
2022-08-09T12:44:10.223Z,51.98
2022-08-09T12:46:43.223Z,51.78
2022-08-09T12:49:11.058Z,51.33
2022-08-09T12:52:01.637Z,51.83
2022-08-09T12:54:26.057Z,52.07
2022-08-09T12:56:54.297Z,51.91
2022-08-09T12:59:24.023Z,51.61
2022-08-09T13:01:59.386Z,52.04
2022-08-09T13:04:35.900Z,52.19
2022-08-09T13:07:13.551Z,51.60
2022-08-09T13:09:43.197Z,51.60
2022-08-09T13:12:10.184Z,51.17
2022-08-09T13:14:43.664Z,51.82
2022-08-09T13:17:16.165Z,51.63
2022-08-09T13:20:07.313Z,51.11
2022-08-09T13:23:06.091Z,50.93
2022-08-09T13:25:54.628Z,49.31
2022-08-09T13:28:33.764Z,49.66
2022-08-09T13:32:14.449Z,50.37
2022-08-09T13:33:56.708Z,50.30
2022-08-09T13:36:40.848Z,50.25
2022-08-09T13:41:17.621Z,49.60
2022-08-09T13:42:12.994Z,50.23
2022-08-09T13:44:42.207Z,49.95
2022-08-09T13:47:33.811Z,50.40
2022-08-09T13:50:18.292Z,50.72
2022-08-09T13:52:57.645Z,50.21
2022-08-09T13:55:24.122Z,50.66
2022-08-09T13:57:58.020Z,50.62
2022-08-09T14:00:28.710Z,50.98
2022-08-09T14:03:04.905Z,51.26
2022-08-09T14:05:59.585Z,51.61
2022-08-09T14:08:29.871Z,50.99
2022-08-09T14:10:57.871Z,51.25
2022-08-09T14:14:16.478Z,51.30
2022-08-09T14:16:16.031Z,50.93
2022-08-09T14:18:49.542Z,50.88
2022-08-09T14:21:18.253Z,50.75
2022-08-09T14:23:53.602Z,50.91
2022-08-09T14:26:24.001Z,51.00
2022-08-09T14:28:51.938Z,50.78
2022-08-09T14:31:18.392Z,51.29
2022-08-09T14:33:54.457Z,51.43
2022-08-09T14:36:21.399Z,51.25
2022-08-09T14:38:52.566Z,50.67
2022-08-09T14:41:34.433Z,50.59
2022-08-09T14:44:06.867Z,51.00
2022-08-09T14:46:58.197Z,50.17
2022-08-09T14:49:23.770Z,49.92
2022-08-09T14:51:51.172Z,50.44
2022-08-09T14:54:27.706Z,50.51
2022-08-09T14:56:58.178Z,50.77
2022-08-09T14:59:27.014Z,50.77
2022-08-09T15:01:53.793Z,51.08
2022-08-09T15:04:20.518Z,50.99
2022-08-09T15:06:50.637Z,50.89
2022-08-09T15:10:03.389Z,50.68
2022-08-09T15:12:08.136Z,50.29
2022-08-09T15:14:38.508Z,50.67
2022-08-09T15:17:07.578Z,50.71
2022-08-09T15:19:36.513Z,51.00
2022-08-09T15:22:03.388Z,50.47
2022-08-09T15:24:29.945Z,50.49
2022-08-09T15:26:57.624Z,50.25
2022-08-09T15:30:56.811Z,50.05
2022-08-09T15:32:29.059Z,49.82
2022-08-09T15:35:00.869Z,50.07
2022-08-09T15:37:56.826Z,50.08
2022-08-09T15:40:25.372Z,49.95
2022-08-09T15:42:58.332Z,50.11
2022-08-09T15:45:29.359Z,49.88
2022-08-09T15:48:05.265Z,50.72
2022-08-09T15:50:34.771Z,50.98
2022-08-09T15:53:17.706Z,51.20
2022-08-09T15:56:04.548Z,50.78
2022-08-09T15:58:32.931Z,51.30
2022-08-09T16:00:59.638Z,51.35
2022-08-09T16:03:37.894Z,51.17
2022-08-09T16:06:06.273Z,50.98
2022-08-09T16:08:33.902Z,50.95
2022-08-09T16:11:02.105Z,51.12
2022-08-09T16:14:03.621Z,50.95
2022-08-09T16:16:18.727Z,50.89
2022-08-09T16:18:46.654Z,51.18
2022-08-09T16:21:17.322Z,50.36
2022-08-09T16:23:55.695Z,50.01
2022-08-09T16:26:34.965Z,50.17
2022-08-09T16:29:11.603Z,50.90
2022-08-09T16:32:19.170Z,51.37
2022-08-09T16:34:56.662Z,51.69
2022-08-09T16:37:18.044Z,51.93
2022-08-09T16:39:54.687Z,52.11
2022-08-09T16:42:30.919Z,52.41
2022-08-09T16:44:57.357Z,52.59
2022-08-09T16:48:37.914Z,52.55
2022-08-09T16:50:30.206Z,52.41
2022-08-09T16:52:57.758Z,52.82
2022-08-09T16:55:24.339Z,53.11
2022-08-09T16:58:09.073Z,53.25
2022-08-09T17:00:38.769Z,53.28
2022-08-09T17:03:21.493Z,53.40
2022-08-09T17:06:07.004Z,53.60
2022-08-09T17:08:43.202Z,53.84
2022-08-09T17:11:15.092Z,54.07
2022-08-09T17:13:41.906Z,54.12
2022-08-09T17:16:11.865Z,54.02
2022-08-09T17:18:38.838Z,54.23
2022-08-09T17:21:05.436Z,54.55
2022-08-09T17:23:36.968Z,54.16
2022-08-09T17:26:31.474Z,54.20
2022-08-09T17:29:04.587Z,54.28
2022-08-09T17:31:38.894Z,54.27
2022-08-09T17:34:06.822Z,54.37
2022-08-09T17:36:53.940Z,54.27
2022-08-09T17:39:24.877Z,54.31
2022-08-09T17:41:51.733Z,54.27
2022-08-09T17:44:38.936Z,54.81
2022-08-09T17:47:05.939Z,54.79
2022-08-09T17:49:37.001Z,54.69
2022-08-09T17:52:22.001Z,54.63
2022-08-09T17:54:58.491Z,54.83
2022-08-09T17:58:03.697Z,55.09
2022-08-09T18:00:12.702Z,55.19
2022-08-09T18:02:40.327Z,55.17
2022-08-09T18:05:16.925Z,55.24
2022-08-09T18:07:48.623Z,55.14
2022-08-09T18:10:15.322Z,55.30
2022-08-09T18:13:39.208Z,55.54
2022-08-09T18:16:04.992Z,55.62
2022-08-09T18:18:25.328Z,55.84
2022-08-09T18:20:59.919Z,55.93
2022-08-09T18:24:09.516Z,55.97
2022-08-09T18:26:16.659Z,56.16
2022-08-09T18:30:35.163Z,56.07
2022-08-09T18:31:51.324Z,56.31
2022-08-09T18:34:16.238Z,56.52
2022-08-09T18:36:46.524Z,56.58
2022-08-09T18:39:16.995Z,56.71
2022-08-09T18:41:52.969Z,56.77
2022-08-09T18:44:25.498Z,56.86
2022-08-09T18:47:07.538Z,57.04
2022-08-09T18:49:42.936Z,57.28
2022-08-09T18:52:14.999Z,57.40
2022-08-09T18:54:52.209Z,57.62
2022-08-09T18:57:22.190Z,57.73
2022-08-09T18:59:56.339Z,57.97
2022-08-09T19:02:30.522Z,58.00
2022-08-09T19:05:04.327Z,57.73
2022-08-09T19:08:04.813Z,57.73
2022-08-09T19:10:37.181Z,57.35
2022-08-09T19:13:20.302Z,57.23
2022-08-09T19:15:55.585Z,57.25
2022-08-09T19:18:33.310Z,56.98
2022-08-09T19:21:03.579Z,56.99
2022-08-09T19:24:33.279Z,56.93
2022-08-09T19:26:19.337Z,56.67
2022-08-09T19:28:55.947Z,56.30
2022-08-09T19:31:27.850Z,56.27
2022-08-09T19:33:57.895Z,56.62
2022-08-09T19:36:31.009Z,56.92
2022-08-09T19:39:03.444Z,56.80
2022-08-09T19:41:33.443Z,56.86
2022-08-09T19:44:03.331Z,56.72
2022-08-09T19:46:35.118Z,56.74
2022-08-09T19:50:08.985Z,56.43
2022-08-09T19:51:55.459Z,56.49
2022-08-09T19:54:27.015Z,56.57
2022-08-09T19:56:54.914Z,56.88
2022-08-09T19:59:57.530Z,56.54
2022-08-09T20:02:18.282Z,56.71
2022-08-09T20:04:57.846Z,56.64
2022-08-09T20:07:25.646Z,56.81
2022-08-09T20:10:00.459Z,56.55
2022-08-09T20:12:37.317Z,57.18
2022-08-09T20:16:35.459Z,57.41
2022-08-09T20:17:59.024Z,57.44
2022-08-09T20:20:25.554Z,57.68
2022-08-09T20:22:56.180Z,57.70
2022-08-09T20:25:23.337Z,57.39
2022-08-09T20:27:49.871Z,57.53
2022-08-09T20:30:17.878Z,57.83
2022-08-09T20:32:48.739Z,58.06
2022-08-09T20:35:20.748Z,58.22
2022-08-09T20:38:24.059Z,57.71
2022-08-09T20:40:34.628Z,56.70
2022-08-09T20:43:18.099Z,56.15
2022-08-09T20:46:00.803Z,56.34
2022-08-09T20:48:37.906Z,55.93
2022-08-09T20:51:05.977Z,56.21
2022-08-09T20:53:37.031Z,56.17
2022-08-09T20:56:20.001Z,56.26
2022-08-09T20:58:54.662Z,56.28
2022-08-09T21:01:35.465Z,56.74
2022-08-09T21:05:50.981Z,56.80
2022-08-09T21:06:58.648Z,57.05
2022-08-09T21:09:42.002Z,57.03
2022-08-09T21:14:40.741Z,57.19
2022-08-09T21:18:11.359Z,56.93
2022-08-09T21:20:18.516Z,57.09
2022-08-09T21:22:43.152Z,57.07
2022-08-09T21:25:37.765Z,56.40
2022-08-09T21:28:07.084Z,56.48
2022-08-09T21:30:34.350Z,56.98
2022-08-09T21:33:03.622Z,57.21
2022-08-09T21:35:40.611Z,57.13
2022-08-09T21:38:18.866Z,57.34
2022-08-09T21:40:58.062Z,57.33
2022-08-09T21:43:55.928Z,57.07
2022-08-09T21:46:11.857Z,57.19
2022-08-09T21:48:42.439Z,57.21
2022-08-09T21:51:14.236Z,57.48
2022-08-09T21:53:54.489Z,57.78
2022-08-09T21:56:33.994Z,57.99
2022-08-09T21:59:09.085Z,57.96
2022-08-09T22:01:58.794Z,57.54
2022-08-09T22:04:21.931Z,57.84
2022-08-09T22:07:08.392Z,57.92
2022-08-09T22:09:35.128Z,57.69
2022-08-09T22:12:15.533Z,57.56
2022-08-09T22:14:46.091Z,57.78
2022-08-09T22:17:12.979Z,57.55
2022-08-09T22:19:58.456Z,57.87
2022-08-09T22:22:27.538Z,57.89
2022-08-09T22:26:04.523Z,58.10
2022-08-09T22:27:40.510Z,58.23
2022-08-09T22:30:09.002Z,57.92
2022-08-09T22:32:35.440Z,57.94
2022-08-09T22:35:06.712Z,57.97
2022-08-09T22:37:49.927Z,58.22
2022-08-09T22:40:34.300Z,58.22
2022-08-09T22:43:01.057Z,58.20
2022-08-09T22:48:12.379Z,58.54
2022-08-09T22:48:35.189Z,58.58
2022-08-09T22:51:10.731Z,58.46
2022-08-09T22:54:02.607Z,58.57
2022-08-09T22:56:33.858Z,58.26
2022-08-09T22:59:05.676Z,58.75
2022-08-09T23:01:51.835Z,58.45
2022-08-09T23:04:18.579Z,58.58
2022-08-09T23:07:04.065Z,58.33
2022-08-09T23:09:38.192Z,58.70
2022-08-09T23:12:04.944Z,58.61
2022-08-09T23:14:37.210Z,58.58
2022-08-09T23:17:07.813Z,58.70
2022-08-09T23:20:00.566Z,58.65
2022-08-09T23:22:20.611Z,59.00
2022-08-09T23:24:48.675Z,58.68
2022-08-09T23:27:15.782Z,58.72
2022-08-09T23:29:42.169Z,58.77
2022-08-09T23:32:08.654Z,58.70
2022-08-09T23:34:35.150Z,58.94
2022-08-09T23:37:01.540Z,58.71
2022-08-09T23:39:28.087Z,58.65
2022-08-09T23:41:54.512Z,58.32
2022-08-09T23:44:21.029Z,58.15
2022-08-09T23:46:48.732Z,57.94
2022-08-09T23:49:24.655Z,57.72
2022-08-09T23:51:52.007Z,57.37
2022-08-09T23:54:18.869Z,57.46
2022-08-09T23:56:54.731Z,56.90
2022-08-09T23:59:24.371Z,57.20
